createdAt,value
2024-02-29T00:02:11.552Z,6.37
2024-02-29T00:04:37.999Z,5.97
2024-02-29T00:07:04.831Z,5.90
2024-02-29T00:09:31.809Z,6.00
2024-02-29T00:11:58.239Z,6.10
2024-02-29T00:14:24.653Z,5.87
2024-02-29T00:16:51.493Z,6.63
2024-02-29T00:19:18.714Z,7.00
2024-02-29T00:21:45.650Z,5.90
2024-02-29T00:24:12.076Z,6.23
2024-02-29T00:26:38.502Z,6.70
2024-02-29T00:29:05.501Z,6.83
2024-02-29T00:31:31.919Z,6.40
2024-02-29T00:33:58.326Z,6.50
2024-02-29T00:36:24.696Z,7.97
2024-02-29T00:38:58.864Z,6.67
2024-02-29T00:41:31.963Z,6.83
2024-02-29T00:43:58.350Z,7.53
2024-02-29T00:46:24.729Z,7.53
2024-02-29T00:48:51.145Z,7.60
2024-02-29T00:51:17.511Z,7.50
2024-02-29T00:53:43.982Z,7.10
2024-02-29T00:56:10.458Z,7.23
2024-02-29T00:58:36.893Z,7.90
2024-02-29T01:01:03.586Z,7.30
2024-02-29T01:03:32.609Z,7.20
2024-02-29T01:05:59.904Z,7.57
2024-02-29T01:08:26.306Z,7.37
2024-02-29T01:10:52.933Z,8.37
2024-02-29T01:13:19.425Z,8.33
2024-02-29T01:15:46.277Z,7.60
2024-02-29T01:18:12.793Z,8.70
2024-02-29T01:20:39.496Z,7.80
2024-02-29T01:23:05.885Z,7.50
2024-02-29T01:25:32.256Z,8.10
2024-02-29T01:27:58.855Z,8.77
2024-02-29T01:30:25.366Z,8.80
2024-02-29T01:32:51.734Z,7.47
2024-02-29T01:35:18.168Z,8.63
2024-02-29T01:37:44.503Z,7.60
2024-02-29T01:40:11.259Z,8.57
2024-02-29T01:42:41.530Z,8.23
2024-02-29T01:45:08.282Z,9.03
2024-02-29T01:47:34.651Z,8.43
2024-02-29T01:50:04.447Z,8.83
2024-02-29T01:52:33.845Z,9.23
2024-02-29T01:55:00.668Z,9.60
2024-02-29T01:57:27.893Z,8.80
2024-02-29T01:59:54.273Z,7.90
2024-02-29T02:02:20.654Z,8.43
2024-02-29T02:04:47.073Z,9.63
2024-02-29T02:07:13.446Z,9.73
2024-02-29T02:09:42.411Z,8.90
2024-02-29T02:12:11.508Z,9.57
2024-02-29T02:14:40.016Z,9.03
2024-02-29T02:17:07.566Z,8.97
2024-02-29T02:19:34.010Z,9.30
2024-02-29T02:22:00.634Z,9.70
2024-02-29T02:24:27.034Z,8.60
2024-02-29T02:26:53.473Z,9.83
2024-02-29T02:29:19.891Z,9.00
2024-02-29T02:31:46.262Z,9.13
2024-02-29T02:34:12.760Z,8.97
2024-02-29T02:36:39.307Z,10.30
2024-02-29T02:39:05.714Z,9.50
2024-02-29T02:41:32.231Z,9.33
2024-02-29T02:43:58.795Z,9.33
2024-02-29T02:46:25.145Z,9.13
2024-02-29T02:48:51.526Z,9.10
2024-02-29T02:51:18.005Z,9.70
2024-02-29T02:53:44.363Z,9.40
2024-02-29T02:56:10.721Z,9.00
2024-02-29T02:58:37.118Z,9.17
2024-02-29T03:01:04.191Z,9.33
2024-02-29T03:03:30.664Z,8.80
2024-02-29T03:05:57.183Z,9.33
2024-02-29T03:08:23.585Z,8.50
2024-02-29T03:10:49.965Z,9.13
2024-02-29T03:13:16.469Z,9.33
2024-02-29T03:15:42.874Z,8.90
2024-02-29T03:18:09.376Z,9.33
2024-02-29T03:20:35.914Z,10.57
2024-02-29T03:23:02.286Z,9.43
2024-02-29T03:25:28.646Z,9.90
2024-02-29T03:27:55.397Z,8.90
2024-02-29T03:30:21.860Z,8.60
2024-02-29T03:32:48.262Z,8.90
2024-02-29T03:35:14.757Z,8.50
2024-02-29T03:37:41.166Z,9.10
2024-02-29T03:40:08.394Z,9.00
2024-02-29T03:42:34.937Z,8.83
2024-02-29T03:45:01.308Z,8.17
2024-02-29T03:47:27.742Z,8.50
2024-02-29T03:49:54.148Z,8.63
2024-02-29T03:52:20.573Z,8.03
2024-02-29T03:54:46.998Z,7.97
2024-02-29T03:57:13.348Z,8.10
2024-02-29T03:59:39.733Z,8.30
2024-02-29T04:02:06.142Z,9.20
2024-02-29T04:04:32.523Z,8.70
2024-02-29T04:06:58.944Z,8.33
2024-02-29T04:09:25.943Z,8.03
2024-02-29T04:11:52.383Z,8.27
2024-02-29T04:14:18.778Z,8.30
2024-02-29T04:16:45.173Z,8.13
2024-02-29T04:19:12.046Z,8.03
2024-02-29T04:21:44.204Z,8.43
2024-02-29T04:24:10.567Z,8.07
2024-02-29T04:26:37.149Z,8.07
2024-02-29T04:29:03.740Z,9.03
2024-02-29T04:31:30.099Z,8.40
2024-02-29T04:33:56.630Z,7.43
2024-02-29T04:36:23.123Z,8.77
2024-02-29T04:38:51.014Z,8.60
2024-02-29T04:41:17.933Z,8.03
2024-02-29T04:43:44.303Z,8.80
2024-02-29T04:46:10.749Z,7.93
2024-02-29T04:48:37.236Z,8.03
2024-02-29T04:51:05.740Z,7.97
2024-02-29T04:53:32.129Z,8.53
2024-02-29T04:55:58.789Z,8.57
2024-02-29T04:58:25.159Z,7.93
2024-02-29T05:00:51.790Z,7.80
2024-02-29T05:03:18.262Z,8.70
2024-02-29T05:05:44.661Z,8.60
2024-02-29T05:08:11.078Z,8.43
2024-02-29T05:10:37.461Z,8.10
2024-02-29T05:13:03.951Z,8.40
2024-02-29T05:15:30.411Z,9.30
2024-02-29T05:17:56.799Z,9.03
2024-02-29T05:20:23.338Z,9.13
2024-02-29T05:22:54.695Z,9.30
2024-02-29T05:25:21.850Z,9.53
2024-02-29T05:27:48.337Z,9.60
2024-02-29T05:30:16.070Z,9.17
2024-02-29T05:32:42.494Z,10.20
2024-02-29T05:35:09.071Z,9.63
2024-02-29T05:37:37.231Z,9.63
2024-02-29T05:40:06.824Z,10.20
2024-02-29T05:42:33.435Z,9.60
2024-02-29T05:45:01.236Z,9.83
2024-02-29T05:47:27.786Z,9.53
2024-02-29T05:49:54.232Z,9.93
2024-02-29T05:52:20.622Z,10.03
2024-02-29T05:54:47.012Z,10.13
2024-02-29T05:57:13.621Z,9.93
2024-02-29T05:59:40.091Z,9.83
2024-02-29T06:02:06.608Z,10.33
2024-02-29T06:04:33.089Z,10.47
2024-02-29T06:06:59.523Z,9.47
2024-02-29T06:09:25.986Z,10.30
2024-02-29T06:11:52.506Z,10.67
2024-02-29T06:14:19.044Z,9.93
2024-02-29T06:16:45.615Z,10.50
2024-02-29T06:19:12.096Z,11.03
2024-02-29T06:21:38.512Z,10.27
2024-02-29T06:24:05.112Z,10.03
2024-02-29T06:26:31.733Z,9.67
2024-02-29T06:28:58.128Z,10.20
2024-02-29T06:31:26.722Z,9.37
2024-02-29T06:33:53.475Z,9.37
2024-02-29T06:36:19.956Z,9.63
2024-02-29T06:38:46.376Z,9.80
2024-02-29T06:41:12.849Z,10.17
2024-02-29T06:43:39.200Z,8.87
2024-02-29T06:46:08.109Z,9.27
2024-02-29T06:48:34.949Z,9.27
2024-02-29T06:51:01.616Z,9.47
2024-02-29T06:53:29.892Z,10.03
2024-02-29T06:55:56.232Z,9.43
2024-02-29T06:58:22.827Z,8.87
2024-02-29T07:00:49.706Z,8.53
2024-02-29T07:03:16.287Z,9.13
2024-02-29T07:05:43.034Z,8.43
2024-02-29T07:08:11.354Z,8.57
2024-02-29T07:10:41.365Z,8.90
2024-02-29T07:13:07.851Z,9.23
2024-02-29T07:15:35.007Z,8.73
2024-02-29T07:18:02.325Z,8.07
2024-02-29T07:20:29.212Z,8.83
2024-02-29T07:22:57.335Z,8.13
2024-02-29T07:25:23.788Z,8.37
2024-02-29T07:27:50.647Z,8.13
2024-02-29T07:30:17.125Z,7.73
2024-02-29T07:32:43.551Z,7.37
2024-02-29T07:35:13.101Z,7.80
2024-02-29T07:37:39.995Z,7.93
2024-02-29T07:40:08.057Z,7.33
2024-02-29T07:42:34.722Z,8.00
2024-02-29T07:45:01.213Z,7.73
2024-02-29T07:47:27.790Z,7.47
2024-02-29T07:49:54.265Z,7.17
2024-02-29T07:52:20.711Z,7.20
2024-02-29T07:54:47.395Z,6.67
2024-02-29T07:57:14.011Z,7.57
2024-02-29T07:59:40.609Z,7.43
2024-02-29T08:02:07.367Z,7.20
2024-02-29T08:04:34.333Z,6.90
2024-02-29T08:07:00.780Z,7.13
2024-02-29T08:09:27.440Z,6.90
2024-02-29T08:11:53.956Z,7.20
2024-02-29T08:14:21.089Z,7.40
2024-02-29T08:16:47.915Z,6.63
2024-02-29T08:19:14.552Z,7.23
2024-02-29T08:21:41.476Z,6.80
2024-02-29T08:24:08.232Z,7.13
2024-02-29T08:26:34.782Z,7.40
2024-02-29T08:29:01.274Z,6.20
2024-02-29T08:31:28.049Z,6.77
2024-02-29T08:33:54.709Z,7.57
2024-02-29T08:36:21.879Z,6.93
2024-02-29T08:38:48.790Z,7.27
2024-02-29T08:41:15.367Z,6.93
2024-02-29T08:43:46.180Z,7.27
2024-02-29T08:46:18.510Z,7.23
2024-02-29T08:48:54.201Z,6.90
2024-02-29T08:51:28.258Z,7.30
2024-02-29T08:54:10.537Z,6.63
2024-02-29T08:56:39.853Z,6.10
2024-02-29T08:59:06.393Z,6.47
2024-02-29T09:01:36.180Z,6.30
2024-02-29T09:04:02.885Z,6.87
2024-02-29T09:06:39.093Z,5.90
2024-02-29T09:09:08.165Z,5.67
2024-02-29T09:11:34.654Z,6.07
2024-02-29T09:14:01.192Z,6.17
2024-02-29T09:16:27.698Z,6.10
2024-02-29T09:18:54.788Z,5.97
2024-02-29T09:21:23.564Z,6.70
2024-02-29T09:23:50.756Z,6.67
2024-02-29T09:26:19.225Z,6.10
2024-02-29T09:28:45.970Z,6.03
2024-02-29T09:31:15.673Z,6.77
2024-02-29T09:33:48.274Z,5.33
2024-02-29T09:36:28.661Z,5.83
2024-02-29T09:38:55.122Z,5.70
2024-02-29T09:41:32.874Z,6.03
2024-02-29T09:44:10.470Z,5.07
2024-02-29T09:46:39.002Z,5.23
2024-02-29T09:49:05.567Z,4.77
2024-02-29T09:51:32.629Z,5.20
2024-02-29T09:54:00.506Z,5.33
2024-02-29T09:56:29.083Z,4.60
2024-02-29T09:58:57.286Z,4.93
2024-02-29T10:01:23.973Z,4.37
2024-02-29T10:03:51.779Z,4.90
2024-02-29T10:06:18.732Z,3.77
2024-02-29T10:08:51.659Z,4.67
2024-02-29T10:11:18.589Z,4.20
2024-02-29T10:13:45.765Z,4.23
2024-02-29T10:16:13.819Z,4.43
2024-02-29T10:18:40.547Z,4.07
2024-02-29T10:21:16.469Z,4.50
2024-02-29T10:23:44.280Z,4.27
2024-02-29T10:26:10.882Z,4.10
2024-02-29T10:28:37.364Z,3.80
2024-02-29T10:31:04.357Z,3.97
2024-02-29T10:33:33.979Z,4.33
2024-02-29T10:36:12.427Z,4.40
2024-02-29T10:38:39.151Z,4.20
2024-02-29T10:41:09.563Z,4.23
2024-02-29T10:43:37.606Z,3.77
2024-02-29T10:46:06.219Z,3.53
2024-02-29T10:48:48.123Z,3.47
2024-02-29T10:51:28.168Z,3.10
2024-02-29T10:54:24.477Z,3.30
2024-02-29T10:56:57.913Z,3.53
2024-02-29T10:59:28.689Z,3.70
2024-02-29T11:02:04.065Z,4.03
2024-02-29T11:04:30.901Z,3.23
2024-02-29T11:07:01.579Z,2.70
2024-02-29T11:09:32.801Z,3.27
2024-02-29T11:12:15.049Z,3.20
2024-02-29T11:14:48.875Z,3.20
2024-02-29T11:17:16.216Z,3.30
2024-02-29T11:19:51.741Z,2.80
2024-02-29T11:22:32.853Z,3.57
2024-02-29T11:28:06.175Z,3.30
2024-02-29T11:30:39.156Z,3.73
2024-02-29T11:33:26.308Z,3.93
2024-02-29T11:36:02.671Z,3.63
2024-02-29T11:38:36.336Z,4.03
2024-02-29T11:41:41.250Z,3.93
2024-02-29T11:44:08.171Z,4.57
2024-02-29T11:46:34.763Z,3.63
2024-02-29T11:49:01.341Z,3.80
2024-02-29T11:51:29.573Z,4.40
2024-02-29T11:53:56.250Z,3.50
2024-02-29T11:56:22.919Z,3.27
2024-02-29T11:58:51.078Z,3.83
2024-02-29T12:01:17.607Z,3.77
2024-02-29T12:03:45.114Z,3.20
2024-02-29T12:06:11.764Z,3.67
2024-02-29T12:08:39.859Z,2.80
2024-02-29T12:13:51.542Z,3.30
2024-02-29T12:16:18.411Z,3.33
2024-02-29T12:18:46.722Z,2.70
2024-02-29T12:21:13.300Z,2.77
2024-02-29T12:23:40.693Z,2.77
2024-02-29T12:26:19.634Z,2.97
2024-02-29T12:28:49.024Z,2.87
2024-02-29T12:31:15.896Z,3.07
2024-02-29T12:33:43.894Z,2.90
2024-02-29T12:36:14.304Z,2.90
2024-02-29T12:38:41.110Z,2.80
2024-02-29T12:41:07.843Z,2.90
2024-02-29T12:43:37.702Z,2.90
2024-02-29T12:46:04.939Z,2.50
2024-02-29T12:48:32.068Z,2.40
2024-02-29T12:50:58.849Z,2.50
2024-02-29T12:53:26.070Z,2.40
2024-02-29T12:55:53.518Z,2.63
2024-02-29T12:58:20.282Z,2.20
2024-02-29T13:00:46.964Z,2.67
2024-02-29T13:03:13.707Z,2.43
2024-02-29T13:05:41.196Z,2.63
2024-02-29T13:08:09.931Z,2.80
2024-02-29T13:10:36.539Z,2.50
2024-02-29T13:13:10.123Z,2.83
2024-02-29T13:15:37.526Z,2.20
2024-02-29T13:18:04.068Z,2.23
2024-02-29T13:20:30.543Z,2.43
2024-02-29T13:22:57.482Z,2.47
2024-02-29T13:25:23.938Z,2.20
2024-02-29T13:27:50.556Z,2.60
2024-02-29T13:30:17.169Z,2.50
2024-02-29T13:32:43.672Z,2.17
2024-02-29T13:35:10.178Z,2.13
2024-02-29T13:37:36.744Z,2.83
2024-02-29T13:40:04.674Z,2.73
2024-02-29T13:42:31.213Z,2.43
2024-02-29T13:44:57.652Z,2.43
2024-02-29T13:47:24.170Z,2.30
2024-02-29T13:49:50.934Z,2.57
2024-02-29T13:52:20.427Z,2.20
2024-02-29T13:54:47.298Z,2.03
2024-02-29T13:57:15.407Z,2.60
2024-02-29T13:59:43.644Z,2.00
2024-02-29T14:02:10.282Z,2.37
2024-02-29T14:04:37.219Z,2.23
2024-02-29T14:07:05.372Z,2.27
2024-02-29T14:09:34.077Z,2.00
2024-02-29T14:12:01.281Z,2.43
2024-02-29T14:14:28.387Z,2.40
2024-02-29T14:16:55.234Z,3.37
2024-02-29T14:19:21.822Z,2.43
2024-02-29T14:21:48.386Z,2.70
2024-02-29T14:24:14.890Z,2.40
2024-02-29T14:26:41.482Z,2.87
2024-02-29T14:29:07.983Z,2.80
2024-02-29T14:31:34.864Z,2.83
2024-02-29T14:34:01.406Z,2.70
2024-02-29T14:36:28.504Z,2.90
2024-02-29T14:39:09.691Z,2.60
2024-02-29T14:41:38.134Z,2.23
2024-02-29T14:44:04.991Z,2.63
2024-02-29T14:46:48.433Z,3.00
2024-02-29T14:49:15.682Z,2.67
2024-02-29T14:51:42.545Z,2.53
2024-02-29T14:54:09.157Z,2.43
2024-02-29T14:56:37.099Z,2.17
2024-02-29T14:59:05.263Z,2.90
2024-02-29T15:01:32.694Z,2.27
2024-02-29T15:03:59.452Z,2.70
2024-02-29T15:06:32.162Z,2.50
2024-02-29T15:08:58.970Z,2.70
2024-02-29T15:11:27.519Z,2.47
2024-02-29T15:13:54.928Z,2.60
2024-02-29T15:16:21.714Z,2.63
2024-02-29T15:18:48.632Z,2.57
2024-02-29T15:21:15.225Z,2.30
2024-02-29T15:23:41.872Z,2.53
2024-02-29T15:26:11.943Z,2.63
2024-02-29T15:28:41.548Z,2.40
2024-02-29T15:31:09.140Z,2.43
2024-02-29T15:33:35.969Z,2.47
2024-02-29T15:36:02.562Z,2.27
2024-02-29T15:38:29.058Z,2.60
2024-02-29T15:40:59.813Z,2.70
2024-02-29T15:43:27.053Z,2.33
2024-02-29T15:45:53.685Z,2.33
2024-02-29T15:48:20.253Z,2.23
2024-02-29T15:50:46.941Z,3.27
2024-02-29T15:53:16.440Z,3.03
2024-02-29T15:55:42.989Z,3.40
2024-02-29T15:58:09.914Z,2.77
2024-02-29T16:00:40.412Z,2.70
2024-02-29T16:03:07.313Z,3.30
2024-02-29T16:05:37.278Z,2.40
2024-02-29T16:08:04.172Z,2.13
2024-02-29T16:10:30.954Z,2.27
2024-02-29T16:13:02.504Z,2.00
2024-02-29T16:15:30.402Z,2.87
2024-02-29T16:17:56.976Z,3.20
2024-02-29T16:20:23.576Z,2.67
2024-02-29T16:22:50.332Z,2.60
2024-02-29T16:25:19.288Z,2.97
2024-02-29T16:27:46.072Z,2.40
2024-02-29T16:30:12.798Z,2.83
2024-02-29T16:32:39.190Z,2.43
2024-02-29T16:35:06.435Z,2.03
2024-02-29T16:37:33.148Z,2.60
2024-02-29T16:39:59.738Z,2.77
2024-02-29T16:42:27.284Z,2.43
2024-02-29T16:44:53.681Z,2.03
2024-02-29T16:47:20.169Z,2.20
2024-02-29T16:49:48.037Z,2.40
2024-02-29T16:52:15.406Z,2.27
2024-02-29T16:54:41.979Z,2.80
2024-02-29T16:57:08.457Z,2.40
2024-02-29T16:59:37.042Z,2.20
2024-02-29T17:02:03.675Z,2.70
2024-02-29T17:04:30.586Z,3.00
2024-02-29T17:06:57.124Z,2.93
2024-02-29T17:09:23.587Z,2.50
2024-02-29T17:11:50.154Z,3.20
2024-02-29T17:14:16.702Z,3.10
2024-02-29T17:16:43.388Z,2.70
2024-02-29T17:19:10.131Z,3.20
2024-02-29T17:21:37.843Z,5.00
2024-02-29T17:24:07.174Z,5.10
2024-02-29T17:26:34.892Z,4.77
2024-02-29T17:29:01.360Z,5.50
2024-02-29T17:31:27.976Z,4.87
2024-02-29T17:33:54.510Z,3.70
2024-02-29T17:36:21.189Z,3.80
2024-02-29T17:38:48.140Z,5.00
2024-02-29T17:41:15.425Z,4.33
2024-02-29T17:43:42.496Z,2.90
2024-02-29T17:46:09.027Z,4.40
2024-02-29T17:48:36.550Z,3.03
2024-02-29T17:51:04.349Z,3.10
2024-02-29T17:53:30.757Z,3.47
2024-02-29T17:55:57.204Z,2.80
2024-02-29T17:58:23.908Z,3.20
2024-02-29T18:00:50.389Z,3.20
2024-02-29T18:03:16.928Z,3.30
2024-02-29T18:05:44.110Z,4.17
2024-02-29T18:08:10.850Z,3.27
2024-02-29T18:10:37.589Z,3.60
2024-02-29T18:13:04.347Z,6.70
2024-02-29T18:15:31.865Z,4.50
2024-02-29T18:17:58.364Z,4.17
2024-02-29T18:20:26.195Z,3.80
2024-02-29T18:22:52.655Z,3.10
2024-02-29T18:25:22.279Z,2.90
2024-02-29T18:27:48.785Z,3.10
2024-02-29T18:30:15.922Z,3.17
2024-02-29T18:32:42.311Z,2.80
2024-02-29T18:35:10.592Z,3.27
2024-02-29T18:37:38.428Z,2.60
2024-02-29T18:40:05.510Z,2.80
2024-02-29T18:42:32.198Z,2.70
2024-02-29T18:44:59.609Z,3.00
2024-02-29T18:47:26.344Z,3.00
2024-02-29T18:49:52.730Z,3.40
2024-02-29T18:52:20.216Z,3.10
2024-02-29T18:54:46.673Z,3.20
2024-02-29T18:57:13.261Z,2.87
2024-02-29T18:59:39.637Z,2.70
2024-02-29T19:02:06.080Z,2.60
2024-02-29T19:04:32.797Z,2.77
2024-02-29T19:06:59.308Z,2.93
2024-02-29T19:09:26.605Z,4.23
2024-02-29T19:11:53.016Z,3.63
2024-02-29T19:14:20.019Z,3.43
2024-02-29T19:16:46.670Z,3.80
2024-02-29T19:19:13.770Z,5.83
2024-02-29T19:21:40.352Z,4.23
2024-02-29T19:24:10.101Z,3.47
2024-02-29T19:26:37.074Z,3.10
2024-02-29T19:29:03.770Z,3.60
2024-02-29T19:31:30.247Z,3.20
2024-02-29T19:33:56.753Z,3.60
2024-02-29T19:36:26.766Z,4.10
2024-02-29T19:38:53.910Z,4.00
2024-02-29T19:41:20.300Z,3.83
2024-02-29T19:43:46.984Z,4.53
2024-02-29T19:46:13.518Z,3.73
2024-02-29T19:48:39.930Z,3.87
2024-02-29T19:51:08.002Z,4.33
2024-02-29T19:53:36.809Z,4.37
2024-02-29T19:56:03.333Z,4.13
2024-02-29T19:58:29.776Z,3.97
2024-02-29T20:01:01.557Z,4.80
2024-02-29T20:03:29.008Z,4.87
2024-02-29T20:05:56.862Z,5.10
2024-02-29T20:08:23.380Z,4.77
2024-02-29T20:10:49.806Z,5.53
2024-02-29T20:13:16.266Z,4.77
2024-02-29T20:15:42.791Z,5.17
2024-02-29T20:18:09.472Z,5.47
2024-02-29T20:20:35.983Z,5.60
2024-02-29T20:23:02.529Z,6.65
2024-02-29T20:25:30.378Z,6.23
2024-02-29T20:27:57.620Z,7.07
2024-02-29T20:30:24.313Z,6.20
2024-02-29T20:32:51.372Z,7.77
2024-02-29T20:35:18.025Z,7.10
2024-02-29T20:37:44.641Z,8.93
2024-02-29T20:40:11.830Z,7.63
2024-02-29T20:42:39.102Z,8.40
2024-02-29T20:45:06.132Z,7.70
2024-02-29T20:47:33.185Z,8.17
2024-02-29T20:49:59.764Z,8.97
2024-02-29T20:52:26.879Z,9.77
2024-02-29T20:54:53.636Z,9.50
2024-02-29T20:57:20.560Z,9.00
2024-02-29T20:59:47.215Z,10.03
2024-02-29T21:02:13.990Z,9.63
2024-02-29T21:04:40.610Z,9.60
2024-02-29T21:07:07.128Z,9.53
2024-02-29T21:09:35.320Z,9.70
2024-02-29T21:12:01.928Z,9.20
2024-02-29T21:14:28.966Z,9.10
2024-02-29T21:16:55.424Z,10.47
2024-02-29T21:19:21.934Z,10.40
2024-02-29T21:21:48.534Z,10.20
2024-02-29T21:24:15.621Z,10.13
2024-02-29T21:26:42.462Z,10.27
2024-02-29T21:29:09.387Z,10.30
2024-02-29T21:31:36.023Z,10.80
2024-02-29T21:34:02.553Z,10.63
2024-02-29T21:36:28.997Z,11.60
2024-02-29T21:38:56.053Z,12.50
2024-02-29T21:41:23.492Z,11.80
2024-02-29T21:43:50.683Z,11.50
2024-02-29T21:46:17.393Z,11.47
2024-02-29T21:48:46.871Z,11.60
2024-02-29T21:51:20.294Z,11.93
2024-02-29T21:53:48.378Z,12.03
2024-02-29T21:56:15.062Z,12.50
2024-02-29T21:58:42.495Z,11.80
2024-02-29T22:01:09.124Z,12.60
2024-02-29T22:03:35.721Z,12.77
2024-02-29T22:06:02.420Z,13.23
2024-02-29T22:08:29.625Z,13.03
2024-02-29T22:10:56.061Z,12.17
2024-02-29T22:13:22.546Z,12.67
2024-02-29T22:15:49.092Z,12.57
2024-02-29T22:18:16.083Z,12.73
2024-02-29T22:20:46.552Z,12.67
2024-02-29T22:23:14.008Z,13.03
2024-02-29T22:25:40.458Z,13.10
2024-02-29T22:28:07.048Z,13.17
2024-02-29T22:30:33.493Z,12.43
2024-02-29T22:33:00.050Z,12.23
2024-02-29T22:35:26.583Z,13.20
2024-02-29T22:37:53.038Z,12.43
2024-02-29T22:40:19.486Z,12.27
2024-02-29T22:42:46.755Z,12.80
2024-02-29T22:45:13.252Z,12.80
2024-02-29T22:47:39.683Z,12.17
2024-02-29T22:50:06.680Z,12.80
2024-02-29T22:52:33.146Z,12.80
2024-02-29T22:54:59.654Z,12.57
2024-02-29T22:57:26.137Z,13.00
2024-02-29T22:59:52.525Z,13.00
2024-02-29T23:02:19.042Z,12.20
2024-02-29T23:04:45.557Z,12.20
2024-02-29T23:07:12.075Z,12.90
2024-02-29T23:09:38.555Z,12.90
2024-02-29T23:12:05.940Z,12.30
2024-02-29T23:14:32.454Z,13.13
2024-02-29T23:16:59.008Z,12.80
2024-02-29T23:19:26.640Z,12.37
2024-02-29T23:21:53.148Z,12.10
2024-02-29T23:24:19.606Z,13.07
2024-02-29T23:26:46.167Z,13.50
2024-02-29T23:29:12.675Z,13.37
2024-02-29T23:31:39.741Z,11.87
2024-02-29T23:34:06.384Z,12.73
2024-02-29T23:36:32.793Z,13.13
2024-02-29T23:38:59.244Z,13.37
2024-02-29T23:41:26.166Z,12.30
2024-02-29T23:43:53.792Z,11.43
2024-02-29T23:46:20.760Z,13.10
2024-02-29T23:48:47.387Z,12.57
2024-02-29T23:51:13.988Z,13.10
2024-02-29T23:53:40.463Z,11.50
2024-02-29T23:56:07.084Z,12.33
2024-02-29T23:58:33.657Z,12.00
